sensor_id;sensor_type;location;lat;lon;timestamp;temperature;humidity
69335;SHT31;56477;52.742;15.242;2023-03-14T00:01:57;12.47;82.33
69335;SHT31;56477;52.742;15.242;2023-03-14T00:04:23;12.43;82.48
69335;SHT31;56477;52.742;15.242;2023-03-14T00:06:49;12.38;82.79
69335;SHT31;56477;52.742;15.242;2023-03-14T00:09:16;12.29;82.88
69335;SHT31;56477;52.742;15.242;2023-03-14T00:11:42;12.27;83.03
69335;SHT31;56477;52.742;15.242;2023-03-14T00:14:09;12.24;83.16
69335;SHT31;56477;52.742;15.242;2023-03-14T00:16:35;12.20;83.30
69335;SHT31;56477;52.742;15.242;2023-03-14T00:19:01;12.19;83.26
69335;SHT31;56477;52.742;15.242;2023-03-14T00:21:27;12.16;83.21
69335;SHT31;56477;52.742;15.242;2023-03-14T00:23:53;12.19;83.14
69335;SHT31;56477;52.742;15.242;2023-03-14T00:26:21;12.23;82.80
69335;SHT31;56477;52.742;15.242;2023-03-14T00:28:51;12.23;82.73
69335;SHT31;56477;52.742;15.242;2023-03-14T00:31:17;12.20;82.72
69335;SHT31;56477;52.742;15.242;2023-03-14T00:33:44;12.23;82.71
69335;SHT31;56477;52.742;15.242;2023-03-14T00:36:15;12.19;82.82
69335;SHT31;56477;52.742;15.242;2023-03-14T00:38:42;12.19;82.86
69335;SHT31;56477;52.742;15.242;2023-03-14T00:41:13;12.14;83.00
69335;SHT31;56477;52.742;15.242;2023-03-14T00:43:40;12.19;83.16
69335;SHT31;56477;52.742;15.242;2023-03-14T00:46:06;12.13;83.30
69335;SHT31;56477;52.742;15.242;2023-03-14T00:48:33;12.13;83.49
69335;SHT31;56477;52.742;15.242;2023-03-14T00:50:59;12.12;83.78
69335;SHT31;56477;52.742;15.242;2023-03-14T00:53:25;12.10;83.94
69335;SHT31;56477;52.742;15.242;2023-03-14T00:55:51;12.07;84.26
69335;SHT31;56477;52.742;15.242;2023-03-14T00:58:17;12.03;84.45
69335;SHT31;56477;52.742;15.242;2023-03-14T01:00:44;11.97;84.76
69335;SHT31;56477;52.742;15.242;2023-03-14T01:03:12;12.00;85.09
69335;SHT31;56477;52.742;15.242;2023-03-14T01:05:39;11.95;85.37
69335;SHT31;56477;52.742;15.242;2023-03-14T01:08:05;11.95;85.71
69335;SHT31;56477;52.742;15.242;2023-03-14T01:10:33;11.89;85.97
69335;SHT31;56477;52.742;15.242;2023-03-14T01:12:59;11.89;86.22
69335;SHT31;56477;52.742;15.242;2023-03-14T01:15:25;11.89;86.43
69335;SHT31;56477;52.742;15.242;2023-03-14T01:17:51;11.85;86.84
69335;SHT31;56477;52.742;15.242;2023-03-14T01:20:17;11.81;87.36
69335;SHT31;56477;52.742;15.242;2023-03-14T01:22:44;11.78;87.60
69335;SHT31;56477;52.742;15.242;2023-03-14T01:25:13;11.75;87.72
69335;SHT31;56477;52.742;15.242;2023-03-14T01:27:39;11.79;88.01
69335;SHT31;56477;52.742;15.242;2023-03-14T01:30:05;11.75;88.15
69335;SHT31;56477;52.742;15.242;2023-03-14T01:32:32;11.69;88.22
69335;SHT31;56477;52.742;15.242;2023-03-14T01:34:58;11.65;88.66
69335;SHT31;56477;52.742;15.242;2023-03-14T01:37:24;11.61;88.77
69335;SHT31;56477;52.742;15.242;2023-03-14T01:39:50;11.55;88.99
69335;SHT31;56477;52.742;15.242;2023-03-14T01:42:16;11.51;89.23
69335;SHT31;56477;52.742;15.242;2023-03-14T01:47:17;11.48;89.56
69335;SHT31;56477;52.742;15.242;2023-03-14T01:49:46;11.46;89.55
69335;SHT31;56477;52.742;15.242;2023-03-14T01:52:25;11.51;89.67
69335;SHT31;56477;52.742;15.242;2023-03-14T01:55:04;11.48;89.71
69335;SHT31;56477;52.742;15.242;2023-03-14T02:00:02;11.57;89.62
69335;SHT31;56477;52.742;15.242;2023-03-14T02:02:30;11.52;89.62
69335;SHT31;56477;52.742;15.242;2023-03-14T02:04:57;11.55;89.83
69335;SHT31;56477;52.742;15.242;2023-03-14T02:07:35;11.52;89.84
69335;SHT31;56477;52.742;15.242;2023-03-14T02:10:03;11.42;89.99
69335;SHT31;56477;52.742;15.242;2023-03-14T02:12:30;11.44;90.23
69335;SHT31;56477;52.742;15.242;2023-03-14T02:14:55;11.51;90.20
69335;SHT31;56477;52.742;15.242;2023-03-14T02:17:22;11.52;90.13
69335;SHT31;56477;52.742;15.242;2023-03-14T02:22:47;11.55;90.08
69335;SHT31;56477;52.742;15.242;2023-03-14T02:28:33;11.58;90.13
69335;SHT31;56477;52.742;15.242;2023-03-14T02:30:59;11.62;90.08
69335;SHT31;56477;52.742;15.242;2023-03-14T02:33:26;11.65;90.03
69335;SHT31;56477;52.742;15.242;2023-03-14T02:35:56;11.66;89.96
69335;SHT31;56477;52.742;15.242;2023-03-14T02:41:14;11.69;89.90
69335;SHT31;56477;52.742;15.242;2023-03-14T02:43:40;11.65;89.99
69335;SHT31;56477;52.742;15.242;2023-03-14T02:46:08;11.62;90.09
69335;SHT31;56477;52.742;15.242;2023-03-14T02:48:41;11.61;90.18
69335;SHT31;56477;52.742;15.242;2023-03-14T02:51:08;11.57;90.24
69335;SHT31;56477;52.742;15.242;2023-03-14T02:53:36;11.55;90.29
69335;SHT31;56477;52.742;15.242;2023-03-14T02:56:03;11.57;90.28
69335;SHT31;56477;52.742;15.242;2023-03-14T02:58:30;11.54;90.34
69335;SHT31;56477;52.742;15.242;2023-03-14T03:00:56;11.50;90.51
69335;SHT31;56477;52.742;15.242;2023-03-14T03:03:22;11.50;90.54
69335;SHT31;56477;52.742;15.242;2023-03-14T03:05:49;11.44;90.65
69335;SHT31;56477;52.742;15.242;2023-03-14T03:08:17;11.44;90.63
69335;SHT31;56477;52.742;15.242;2023-03-14T03:10:42;11.44;90.64
69335;SHT31;56477;52.742;15.242;2023-03-14T03:13:09;11.41;90.67
69335;SHT31;56477;52.742;15.242;2023-03-14T03:15:34;11.38;90.68
69335;SHT31;56477;52.742;15.242;2023-03-14T03:18:01;11.39;90.80
69335;SHT31;56477;52.742;15.242;2023-03-14T03:20:26;11.42;90.61
69335;SHT31;56477;52.742;15.242;2023-03-14T03:22:53;11.39;90.61
69335;SHT31;56477;52.742;15.242;2023-03-14T03:25:18;11.44;90.55
69335;SHT31;56477;52.742;15.242;2023-03-14T03:27:45;11.45;90.48
69335;SHT31;56477;52.742;15.242;2023-03-14T03:30:11;11.38;90.61
69335;SHT31;56477;52.742;15.242;2023-03-14T03:32:37;11.37;90.74
69335;SHT31;56477;52.742;15.242;2023-03-14T03:35:03;11.32;90.86
69335;SHT31;56477;52.742;15.242;2023-03-14T03:37:31;11.31;90.73
69335;SHT31;56477;52.742;15.242;2023-03-14T03:39:57;11.31;90.84
69335;SHT31;56477;52.742;15.242;2023-03-14T03:42:23;11.28;90.77
69335;SHT31;56477;52.742;15.242;2023-03-14T03:44:49;11.23;90.84
69335;SHT31;56477;52.742;15.242;2023-03-14T03:47:15;11.20;90.86
69335;SHT31;56477;52.742;15.242;2023-03-14T03:49:41;11.18;90.93
69335;SHT31;56477;52.742;15.242;2023-03-14T03:52:07;11.17;90.93
69335;SHT31;56477;52.742;15.242;2023-03-14T03:54:34;11.20;90.80
69335;SHT31;56477;52.742;15.242;2023-03-14T03:57:00;11.20;90.85
69335;SHT31;56477;52.742;15.242;2023-03-14T03:59:26;11.10;91.04
69335;SHT31;56477;52.742;15.242;2023-03-14T04:01:52;11.06;91.14
69335;SHT31;56477;52.742;15.242;2023-03-14T04:04:18;11.03;91.22
69335;SHT31;56477;52.742;15.242;2023-03-14T04:06:44;10.99;91.20
69335;SHT31;56477;52.742;15.242;2023-03-14T04:09:10;11.00;91.18
69335;SHT31;56477;52.742;15.242;2023-03-14T04:11:37;10.95;91.13
69335;SHT31;56477;52.742;15.242;2023-03-14T04:14:03;10.99;91.02
69335;SHT31;56477;52.742;15.242;2023-03-14T04:16:29;10.92;91.05
69335;SHT31;56477;52.742;15.242;2023-03-14T04:18:57;10.96;90.93
69335;SHT31;56477;52.742;15.242;2023-03-14T04:21:23;10.96;90.79
69335;SHT31;56477;52.742;15.242;2023-03-14T04:23:49;10.90;90.77
69335;SHT31;56477;52.742;15.242;2023-03-14T04:26:16;10.95;90.67
69335;SHT31;56477;52.742;15.242;2023-03-14T04:28:42;10.90;90.64
69335;SHT31;56477;52.742;15.242;2023-03-14T04:31:13;10.92;90.63
69335;SHT31;56477;52.742;15.242;2023-03-14T04:33:39;10.93;90.38
69335;SHT31;56477;52.742;15.242;2023-03-14T04:36:06;10.90;90.41
69335;SHT31;56477;52.742;15.242;2023-03-14T04:38:32;10.86;90.39
69335;SHT31;56477;52.742;15.242;2023-03-14T04:40:58;10.86;90.39
69335;SHT31;56477;52.742;15.242;2023-03-14T04:43:25;10.84;90.29
69335;SHT31;56477;52.742;15.242;2023-03-14T04:45:53;10.81;90.27
69335;SHT31;56477;52.742;15.242;2023-03-14T04:48:19;10.83;90.31
69335;SHT31;56477;52.742;15.242;2023-03-14T04:50:46;10.77;90.32
69335;SHT31;56477;52.742;15.242;2023-03-14T04:53:13;10.75;90.27
69335;SHT31;56477;52.742;15.242;2023-03-14T04:55:39;10.75;90.27
69335;SHT31;56477;52.742;15.242;2023-03-14T04:58:05;10.69;90.32
69335;SHT31;56477;52.742;15.242;2023-03-14T05:00:31;10.66;90.34
69335;SHT31;56477;52.742;15.242;2023-03-14T05:02:57;10.69;90.26
69335;SHT31;56477;52.742;15.242;2023-03-14T05:05:23;10.67;90.34
69335;SHT31;56477;52.742;15.242;2023-03-14T05:07:49;10.72;90.14
69335;SHT31;56477;52.742;15.242;2023-03-14T05:10:16;10.60;90.20
69335;SHT31;56477;52.742;15.242;2023-03-14T05:12:41;10.62;90.19
69335;SHT31;56477;52.742;15.242;2023-03-14T05:15:08;10.60;90.10
69335;SHT31;56477;52.742;15.242;2023-03-14T05:17:34;10.59;90.06
69335;SHT31;56477;52.742;15.242;2023-03-14T05:20:00;10.60;89.99
69335;SHT31;56477;52.742;15.242;2023-03-14T05:22:26;10.53;89.97
69335;SHT31;56477;52.742;15.242;2023-03-14T05:24:52;10.56;89.84
69335;SHT31;56477;52.742;15.242;2023-03-14T05:27:22;10.55;89.88
69335;SHT31;56477;52.742;15.242;2023-03-14T05:29:48;10.52;89.83
69335;SHT31;56477;52.742;15.242;2023-03-14T05:32:14;10.48;89.84
69335;SHT31;56477;52.742;15.242;2023-03-14T05:34:40;10.46;89.86
69335;SHT31;56477;52.742;15.242;2023-03-14T05:37:06;10.48;89.82
69335;SHT31;56477;52.742;15.242;2023-03-14T05:39:32;10.45;89.74
69335;SHT31;56477;52.742;15.242;2023-03-14T05:41:58;10.41;89.81
69335;SHT31;56477;52.742;15.242;2023-03-14T05:44:24;10.41;89.80
69335;SHT31;56477;52.742;15.242;2023-03-14T05:46:50;10.41;89.74
69335;SHT31;56477;52.742;15.242;2023-03-14T05:49:16;10.41;89.71
69335;SHT31;56477;52.742;15.242;2023-03-14T05:51:42;10.41;89.69
69335;SHT31;56477;52.742;15.242;2023-03-14T05:54:08;10.39;89.56
69335;SHT31;56477;52.742;15.242;2023-03-14T05:56:34;10.44;89.55
69335;SHT31;56477;52.742;15.242;2023-03-14T05:59:00;10.41;89.39
69335;SHT31;56477;52.742;15.242;2023-03-14T06:01:28;10.41;89.34
69335;SHT31;56477;52.742;15.242;2023-03-14T06:03:53;10.42;89.32
69335;SHT31;56477;52.742;15.242;2023-03-14T06:06:19;10.39;89.29
69335;SHT31;56477;52.742;15.242;2023-03-14T06:08:45;10.41;89.25
69335;SHT31;56477;52.742;15.242;2023-03-14T06:11:11;10.39;89.29
69335;SHT31;56477;52.742;15.242;2023-03-14T06:13:37;10.41;89.05
69335;SHT31;56477;52.742;15.242;2023-03-14T06:16:03;10.41;88.93
69335;SHT31;56477;52.742;15.242;2023-03-14T06:18:30;10.48;88.82
69335;SHT31;56477;52.742;15.242;2023-03-14T06:20:56;10.45;88.85
69335;SHT31;56477;52.742;15.242;2023-03-14T06:23:22;10.45;88.81
69335;SHT31;56477;52.742;15.242;2023-03-14T06:25:48;10.41;88.85
69335;SHT31;56477;52.742;15.242;2023-03-14T06:28:14;10.41;88.75
69335;SHT31;56477;52.742;15.242;2023-03-14T06:30:40;10.46;88.52
69335;SHT31;56477;52.742;15.242;2023-03-14T06:33:06;10.49;88.43
69335;SHT31;56477;52.742;15.242;2023-03-14T06:35:32;10.50;88.25
69335;SHT31;56477;52.742;15.242;2023-03-14T06:37:58;10.50;88.14
69335;SHT31;56477;52.742;15.242;2023-03-14T06:40:24;10.55;87.94
69335;SHT31;56477;52.742;15.242;2023-03-14T06:42:50;10.63;87.52
69335;SHT31;56477;52.742;15.242;2023-03-14T06:45:16;10.65;87.55
69335;SHT31;56477;52.742;15.242;2023-03-14T06:47:42;10.67;87.38
69335;SHT31;56477;52.742;15.242;2023-03-14T06:50:09;10.72;87.08
69335;SHT31;56477;52.742;15.242;2023-03-14T06:52:35;10.76;86.95
69335;SHT31;56477;52.742;15.242;2023-03-14T06:55:02;10.76;87.00
69335;SHT31;56477;52.742;15.242;2023-03-14T06:57:28;10.77;86.70
69335;SHT31;56477;52.742;15.242;2023-03-14T06:59:54;10.81;86.55
69335;SHT31;56477;52.742;15.242;2023-03-14T07:02:20;10.93;86.31
69335;SHT31;56477;52.742;15.242;2023-03-14T07:04:47;10.99;85.94
69335;SHT31;56477;52.742;15.242;2023-03-14T07:07:13;11.03;86.06
69335;SHT31;56477;52.742;15.242;2023-03-14T07:09:39;11.03;85.66
69335;SHT31;56477;52.742;15.242;2023-03-14T07:12:05;11.01;85.80
69335;SHT31;56477;52.742;15.242;2023-03-14T07:14:31;10.96;85.97
69335;SHT31;56477;52.742;15.242;2023-03-14T07:16:57;10.96;85.96
69335;SHT31;56477;52.742;15.242;2023-03-14T07:19:23;10.99;85.77
69335;SHT31;56477;52.742;15.242;2023-03-14T07:21:49;11.07;85.13
69335;SHT31;56477;52.742;15.242;2023-03-14T07:24:15;11.10;85.15
69335;SHT31;56477;52.742;15.242;2023-03-14T07:26:41;11.24;84.79
69335;SHT31;56477;52.742;15.242;2023-03-14T07:29:07;11.31;84.57
69335;SHT31;56477;52.742;15.242;2023-03-14T07:31:33;11.46;83.73
69335;SHT31;56477;52.742;15.242;2023-03-14T07:33:59;11.59;83.29
69335;SHT31;56477;52.742;15.242;2023-03-14T07:36:25;11.68;82.98
69335;SHT31;56477;52.742;15.242;2023-03-14T07:38:51;11.81;82.54
69335;SHT31;56477;52.742;15.242;2023-03-14T07:41:18;11.81;82.41
69335;SHT31;56477;52.742;15.242;2023-03-14T07:43:44;11.92;81.84
69335;SHT31;56477;52.742;15.242;2023-03-14T07:46:10;11.90;82.09
69335;SHT31;56477;52.742;15.242;2023-03-14T07:48:35;12.24;81.02
69335;SHT31;56477;52.742;15.242;2023-03-14T07:51:02;13.39;77.43
69335;SHT31;56477;52.742;15.242;2023-03-14T07:53:28;14.09;75.02
69335;SHT31;56477;52.742;15.242;2023-03-14T07:55:54;15.18;71.23
69335;SHT31;56477;52.742;15.242;2023-03-14T07:58:20;15.36;70.05
69335;SHT31;56477;52.742;15.242;2023-03-14T08:00:51;15.25;69.58
69335;SHT31;56477;52.742;15.242;2023-03-14T08:03:17;16.07;68.13
69335;SHT31;56477;52.742;15.242;2023-03-14T08:05:44;16.42;66.29
69335;SHT31;56477;52.742;15.242;2023-03-14T08:08:12;15.69;67.95
69335;SHT31;56477;52.742;15.242;2023-03-14T08:10:38;14.45;70.15
69335;SHT31;56477;52.742;15.242;2023-03-14T08:13:04;14.15;73.15
69335;SHT31;56477;52.742;15.242;2023-03-14T08:15:30;15.24;69.19
69335;SHT31;56477;52.742;15.242;2023-03-14T08:17:57;15.27;69.11
69335;SHT31;56477;52.742;15.242;2023-03-14T08:20:26;14.02;72.22
69335;SHT31;56477;52.742;15.242;2023-03-14T08:22:52;13.68;72.76
69335;SHT31;56477;52.742;15.242;2023-03-14T08:25:18;13.32;74.29
69335;SHT31;56477;52.742;15.242;2023-03-14T08:27:44;13.26;74.63
69335;SHT31;56477;52.742;15.242;2023-03-14T08:30:12;13.05;75.30
69335;SHT31;56477;52.742;15.242;2023-03-14T08:32:38;12.92;75.45
69335;SHT31;56477;52.742;15.242;2023-03-14T08:35:05;12.74;76.08
69335;SHT31;56477;52.742;15.242;2023-03-14T08:37:33;12.72;76.43
69335;SHT31;56477;52.742;15.242;2023-03-14T08:40:01;12.87;76.39
69335;SHT31;56477;52.742;15.242;2023-03-14T08:42:32;12.67;76.42
69335;SHT31;56477;52.742;15.242;2023-03-14T08:44:59;12.68;77.08
69335;SHT31;56477;52.742;15.242;2023-03-14T08:47:25;12.67;76.26
69335;SHT31;56477;52.742;15.242;2023-03-14T08:49:51;12.72;76.12
69335;SHT31;56477;52.742;15.242;2023-03-14T08:52:17;12.71;75.85
69335;SHT31;56477;52.742;15.242;2023-03-14T08:54:44;12.57;76.75
69335;SHT31;56477;52.742;15.242;2023-03-14T08:57:10;12.60;76.23
69335;SHT31;56477;52.742;15.242;2023-03-14T08:59:36;12.57;76.37
69335;SHT31;56477;52.742;15.242;2023-03-14T09:02:02;12.68;76.55
69335;SHT31;56477;52.742;15.242;2023-03-14T09:04:32;12.74;76.84
69335;SHT31;56477;52.742;15.242;2023-03-14T09:06:59;12.84;75.53
69335;SHT31;56477;52.742;15.242;2023-03-14T09:09:25;13.01;75.14
69335;SHT31;56477;52.742;15.242;2023-03-14T09:11:56;12.93;75.49
69335;SHT31;56477;52.742;15.242;2023-03-14T09:14:22;12.88;76.23
69335;SHT31;56477;52.742;15.242;2023-03-14T09:16:48;13.09;74.47
69335;SHT31;56477;52.742;15.242;2023-03-14T09:19:15;13.03;75.69
69335;SHT31;56477;52.742;15.242;2023-03-14T09:21:40;13.19;74.90
69335;SHT31;56477;52.742;15.242;2023-03-14T09:24:07;13.29;74.74
69335;SHT31;56477;52.742;15.242;2023-03-14T09:26:32;13.30;74.97
69335;SHT31;56477;52.742;15.242;2023-03-14T09:28:58;13.80;73.17
69335;SHT31;56477;52.742;15.242;2023-03-14T09:31:24;13.68;73.12
69335;SHT31;56477;52.742;15.242;2023-03-14T09:33:50;14.36;71.75
69335;SHT31;56477;52.742;15.242;2023-03-14T09:36:16;14.32;71.50
69335;SHT31;56477;52.742;15.242;2023-03-14T09:38:42;14.00;70.68
69335;SHT31;56477;52.742;15.242;2023-03-14T09:41:15;14.14;71.25
69335;SHT31;56477;52.742;15.242;2023-03-14T09:43:43;13.85;72.76
69335;SHT31;56477;52.742;15.242;2023-03-14T09:46:10;14.36;71.60
69335;SHT31;56477;52.742;15.242;2023-03-14T09:48:37;14.62;70.62
69335;SHT31;56477;52.742;15.242;2023-03-14T09:51:21;14.53;70.07
69335;SHT31;56477;52.742;15.242;2023-03-14T09:53:50;14.08;71.48
69335;SHT31;56477;52.742;15.242;2023-03-14T09:56:23;13.81;72.31
69335;SHT31;56477;52.742;15.242;2023-03-14T09:59:03;13.66;73.17
69335;SHT31;56477;52.742;15.242;2023-03-14T10:01:31;13.42;72.90
69335;SHT31;56477;52.742;15.242;2023-03-14T10:04:04;13.13;73.46
69335;SHT31;56477;52.742;15.242;2023-03-14T10:06:32;13.15;73.82
69335;SHT31;56477;52.742;15.242;2023-03-14T10:08:58;13.01;73.96
69335;SHT31;56477;52.742;15.242;2023-03-14T10:11:24;13.06;73.95
69335;SHT31;56477;52.742;15.242;2023-03-14T10:14:08;13.09;73.84
69335;SHT31;56477;52.742;15.242;2023-03-14T10:16:43;13.23;73.72
69335;SHT31;56477;52.742;15.242;2023-03-14T10:19:14;13.36;73.60
69335;SHT31;56477;52.742;15.242;2023-03-14T10:21:52;13.40;72.86
69335;SHT31;56477;52.742;15.242;2023-03-14T10:27:26;13.91;70.95
69335;SHT31;56477;52.742;15.242;2023-03-14T10:29:58;13.68;71.24
69335;SHT31;56477;52.742;15.242;2023-03-14T10:32:45;13.57;72.76
69335;SHT31;56477;52.742;15.242;2023-03-14T10:37:57;13.84;70.26
69335;SHT31;56477;52.742;15.242;2023-03-14T10:40:30;13.75;70.76
69335;SHT31;56477;52.742;15.242;2023-03-14T10:43:04;13.61;71.57
69335;SHT31;56477;52.742;15.242;2023-03-14T10:45:36;13.59;71.70
69335;SHT31;56477;52.742;15.242;2023-03-14T10:48:25;13.70;71.57
69335;SHT31;56477;52.742;15.242;2023-03-14T10:51:02;13.49;72.53
69335;SHT31;56477;52.742;15.242;2023-03-14T10:53:33;13.39;72.24
69335;SHT31;56477;52.742;15.242;2023-03-14T10:56:02;13.49;72.37
69335;SHT31;56477;52.742;15.242;2023-03-14T10:58:31;13.51;72.03
69335;SHT31;56477;52.742;15.242;2023-03-14T11:04:10;13.64;71.85
69335;SHT31;56477;52.742;15.242;2023-03-14T11:06:56;14.35;70.27
69335;SHT31;56477;52.742;15.242;2023-03-14T11:15:02;14.22;68.49
69335;SHT31;56477;52.742;15.242;2023-03-14T11:17:38;14.50;69.00
69335;SHT31;56477;52.742;15.242;2023-03-14T11:20:31;14.45;67.37
69335;SHT31;56477;52.742;15.242;2023-03-14T11:23:15;14.30;67.79
69335;SHT31;56477;52.742;15.242;2023-03-14T11:28:49;14.04;68.92
69335;SHT31;56477;52.742;15.242;2023-03-14T11:31:20;13.89;69.22
69335;SHT31;56477;52.742;15.242;2023-03-14T11:36:52;14.11;68.45
69335;SHT31;56477;52.742;15.242;2023-03-14T11:39:20;14.00;68.82
69335;SHT31;56477;52.742;15.242;2023-03-14T11:41:51;14.59;67.88
69335;SHT31;56477;52.742;15.242;2023-03-14T11:44:30;14.28;67.43
69335;SHT31;56477;52.742;15.242;2023-03-14T11:50:01;14.87;65.74
69335;SHT31;56477;52.742;15.242;2023-03-14T11:52:37;14.24;67.43
69335;SHT31;56477;52.742;15.242;2023-03-14T11:55:13;14.02;68.10
69335;SHT31;56477;52.742;15.242;2023-03-14T11:57:43;13.88;69.06
69335;SHT31;56477;52.742;15.242;2023-03-14T12:00:17;13.81;69.72
69335;SHT31;56477;52.742;15.242;2023-03-14T12:03:10;13.64;69.62
69335;SHT31;56477;52.742;15.242;2023-03-14T12:11:00;13.67;69.42
69335;SHT31;56477;52.742;15.242;2023-03-14T12:13:29;13.64;70.01
69335;SHT31;56477;52.742;15.242;2023-03-14T12:15:59;13.61;69.78
69335;SHT31;56477;52.742;15.242;2023-03-14T12:18:31;13.61;69.65
69335;SHT31;56477;52.742;15.242;2023-03-14T12:21:00;13.57;69.94
69335;SHT31;56477;52.742;15.242;2023-03-14T12:23:28;13.57;69.87
69335;SHT31;56477;52.742;15.242;2023-03-14T12:28:39;13.46;70.01
69335;SHT31;56477;52.742;15.242;2023-03-14T12:42:37;13.44;70.07
69335;SHT31;56477;52.742;15.242;2023-03-14T12:50:44;13.42;69.97
69335;SHT31;56477;52.742;15.242;2023-03-14T12:56:17;13.54;70.05
69335;SHT31;56477;52.742;15.242;2023-03-14T13:01:59;13.63;70.57
69335;SHT31;56477;52.742;15.242;2023-03-14T13:12:51;13.54;70.16
69335;SHT31;56477;52.742;15.242;2023-03-14T13:15:40;13.63;70.36
69335;SHT31;56477;52.742;15.242;2023-03-14T13:20:52;13.51;70.58
69335;SHT31;56477;52.742;15.242;2023-03-14T13:23:32;13.44;70.42
69335;SHT31;56477;52.742;15.242;2023-03-14T13:25:59;13.40;70.75
69335;SHT31;56477;52.742;15.242;2023-03-14T13:28:27;13.47;70.38
69335;SHT31;56477;52.742;15.242;2023-03-14T13:30:57;13.51;70.75
69335;SHT31;56477;52.742;15.242;2023-03-14T13:33:23;13.50;70.58
69335;SHT31;56477;52.742;15.242;2023-03-14T13:35:58;13.51;70.50
69335;SHT31;56477;52.742;15.242;2023-03-14T13:38:27;13.61;70.27
69335;SHT31;56477;52.742;15.242;2023-03-14T13:40:55;13.68;69.68
69335;SHT31;56477;52.742;15.242;2023-03-14T13:43:29;13.71;70.08
69335;SHT31;56477;52.742;15.242;2023-03-14T13:48:27;13.87;68.75
69335;SHT31;56477;52.742;15.242;2023-03-14T13:51:05;14.43;67.81
69335;SHT31;56477;52.742;15.242;2023-03-14T13:53:43;15.75;63.95
69335;SHT31;56477;52.742;15.242;2023-03-14T13:56:10;15.30;64.80
69335;SHT31;56477;52.742;15.242;2023-03-14T13:58:39;14.94;65.06
69335;SHT31;56477;52.742;15.242;2023-03-14T14:03:44;14.81;65.44
69335;SHT31;56477;52.742;15.242;2023-03-14T14:09:11;15.76;63.17
69335;SHT31;56477;52.742;15.242;2023-03-14T14:14:08;14.49;67.41
69335;SHT31;56477;52.742;15.242;2023-03-14T14:16:37;15.01;66.23
69335;SHT31;56477;52.742;15.242;2023-03-14T14:19:03;15.28;66.29
69335;SHT31;56477;52.742;15.242;2023-03-14T14:21:29;14.63;68.84
69335;SHT31;56477;52.742;15.242;2023-03-14T14:23:57;14.36;69.99
69335;SHT31;56477;52.742;15.242;2023-03-14T14:26:26;14.08;71.30
69335;SHT31;56477;52.742;15.242;2023-03-14T14:29:03;14.01;71.87
69335;SHT31;56477;52.742;15.242;2023-03-14T14:31:29;13.75;71.33
69335;SHT31;56477;52.742;15.242;2023-03-14T14:36:30;14.14;70.77
69335;SHT31;56477;52.742;15.242;2023-03-14T14:39:00;15.12;67.72
69335;SHT31;56477;52.742;15.242;2023-03-14T14:41:28;15.75;66.33
69335;SHT31;56477;52.742;15.242;2023-03-14T14:43:55;15.63;65.13
69335;SHT31;56477;52.742;15.242;2023-03-14T14:46:27;15.10;66.25
69335;SHT31;56477;52.742;15.242;2023-03-14T14:48:56;15.30;66.72
69335;SHT31;56477;52.742;15.242;2023-03-14T14:51:25;15.45;66.98
69335;SHT31;56477;52.742;15.242;2023-03-14T14:54:09;15.59;66.88
69335;SHT31;56477;52.742;15.242;2023-03-14T14:56:37;15.86;65.01
69335;SHT31;56477;52.742;15.242;2023-03-14T14:59:04;15.85;65.40
69335;SHT31;56477;52.742;15.242;2023-03-14T15:01:36;15.51;67.29
69335;SHT31;56477;52.742;15.242;2023-03-14T15:04:04;15.44;66.52
69335;SHT31;56477;52.742;15.242;2023-03-14T15:06:34;14.83;68.25
69335;SHT31;56477;52.742;15.242;2023-03-14T15:09:00;14.29;70.00
69335;SHT31;56477;52.742;15.242;2023-03-14T15:11:26;14.04;71.27
69335;SHT31;56477;52.742;15.242;2023-03-14T15:13:52;13.74;71.88
69335;SHT31;56477;52.742;15.242;2023-03-14T15:16:26;14.45;70.04
69335;SHT31;56477;52.742;15.242;2023-03-14T15:18:55;14.42;70.30
69335;SHT31;56477;52.742;15.242;2023-03-14T15:21:22;14.57;70.04
69335;SHT31;56477;52.742;15.242;2023-03-14T15:23:48;14.90;69.02
69335;SHT31;56477;52.742;15.242;2023-03-14T15:26:17;15.15;67.55
69335;SHT31;56477;52.742;15.242;2023-03-14T15:28:44;14.63;68.37
69335;SHT31;56477;52.742;15.242;2023-03-14T15:31:12;14.32;68.25
69335;SHT31;56477;52.742;15.242;2023-03-14T15:33:39;13.82;69.96
69335;SHT31;56477;52.742;15.242;2023-03-14T15:36:31;13.44;71.24
69335;SHT31;56477;52.742;15.242;2023-03-14T15:38:57;13.32;71.89
69335;SHT31;56477;52.742;15.242;2023-03-14T15:41:26;13.24;72.12
69335;SHT31;56477;52.742;15.242;2023-03-14T15:43:53;13.18;72.60
69335;SHT31;56477;52.742;15.242;2023-03-14T15:46:20;13.15;72.75
69335;SHT31;56477;52.742;15.242;2023-03-14T15:48:48;13.05;73.33
69335;SHT31;56477;52.742;15.242;2023-03-14T15:51:15;13.60;72.18
69335;SHT31;56477;52.742;15.242;2023-03-14T15:53:41;14.21;70.18
69335;SHT31;56477;52.742;15.242;2023-03-14T15:56:14;14.84;68.29
69335;SHT31;56477;52.742;15.242;2023-03-14T15:58:41;14.98;67.21
69335;SHT31;56477;52.742;15.242;2023-03-14T16:01:08;14.26;69.42
69335;SHT31;56477;52.742;15.242;2023-03-14T16:03:36;14.22;69.35
69335;SHT31;56477;52.742;15.242;2023-03-14T16:06:03;14.00;70.62
69335;SHT31;56477;52.742;15.242;2023-03-14T16:08:29;13.82;71.60
69335;SHT31;56477;52.742;15.242;2023-03-14T16:10:58;14.12;70.62
69335;SHT31;56477;52.742;15.242;2023-03-14T16:13:24;13.61;71.93
69335;SHT31;56477;52.742;15.242;2023-03-14T16:15:58;13.18;73.51
69335;SHT31;56477;52.742;15.242;2023-03-14T16:18:27;13.03;73.90
69335;SHT31;56477;52.742;15.242;2023-03-14T16:21:19;12.88;74.65
69335;SHT31;56477;52.742;15.242;2023-03-14T16:23:45;12.82;75.00
69335;SHT31;56477;52.742;15.242;2023-03-14T16:26:17;12.71;75.70
69335;SHT31;56477;52.742;15.242;2023-03-14T16:28:44;12.71;75.58
69335;SHT31;56477;52.742;15.242;2023-03-14T16:31:12;12.67;76.05
69335;SHT31;56477;52.742;15.242;2023-03-14T16:33:39;12.68;75.63
69335;SHT31;56477;52.742;15.242;2023-03-14T16:36:07;12.64;75.87
69335;SHT31;56477;52.742;15.242;2023-03-14T16:38:34;12.62;75.92
69335;SHT31;56477;52.742;15.242;2023-03-14T16:41:18;12.52;76.12
69335;SHT31;56477;52.742;15.242;2023-03-14T16:43:45;12.50;76.20
69335;SHT31;56477;52.742;15.242;2023-03-14T16:46:15;12.50;76.37
69335;SHT31;56477;52.742;15.242;2023-03-14T16:48:41;12.47;76.43
69335;SHT31;56477;52.742;15.242;2023-03-14T16:51:07;12.45;76.46
69335;SHT31;56477;52.742;15.242;2023-03-14T16:53:34;12.41;76.68
69335;SHT31;56477;52.742;15.242;2023-03-14T16:56:00;12.36;76.75